Time;durP1;ratioP1;P1;durP2;ratioP2;P2;SDS_P1;SDS_P2;PMS_P1;PMS_P2;Temp;Humidity;BMP_temperature;BMP_pressure;BME280_temperature;BME280_humidity;BME280_pressure;Samples;Min_cycle;Max_cycle;Signal;HPM_P1;HPM_P2
2023/05/04 00:01:54;;;;;;;1.88;1.67;;;17.60;54.60;;;;;;5073624;28;20175;-62
2023/05/04 00:04:20;;;;;;;1.90;1.70;;;17.50;54.60;;;;;;5072386;28;20210;-62
2023/05/04 00:06:46;;;;;;;1.65;1.55;;;17.50;54.60;;;;;;5073440;28;20617;-62
2023/05/04 00:09:13;;;;;;;1.95;1.77;;;17.50;54.60;;;;;;5073342;28;20603;-61
2023/05/04 00:11:39;;;;;;;2.05;1.95;;;17.50;54.60;;;;;;5072878;28;20212;-61
2023/05/04 00:14:05;;;;;;;1.75;1.65;;;17.50;54.60;;;;;;5073007;28;20518;-61
2023/05/04 00:16:30;;;;;;;2.15;1.60;;;17.50;54.60;;;;;;5073586;28;20171;-61
2023/05/04 00:18:56;;;;;;;1.85;1.70;;;17.50;54.60;;;;;;5072516;28;20236;-61
2023/05/04 00:21:21;;;;;;;1.80;1.70;;;17.50;54.70;;;;;;5073027;28;20224;-61
2023/05/04 00:23:47;;;;;;;1.95;1.85;;;17.50;54.60;;;;;;5073551;28;20189;-61
2023/05/04 00:26:12;;;;;;;2.03;1.67;;;17.40;54.60;;;;;;5072193;28;20308;-61
2023/05/04 00:28:38;;;;;;;2.15;1.50;;;17.50;54.60;;;;;;5073198;28;20206;-61
2023/05/04 00:31:04;;;;;;;1.80;1.58;;;17.50;54.60;;;;;;5073289;28;20308;-62
2023/05/04 00:33:29;;;;;;;1.80;1.70;;;17.50;54.60;;;;;;5072134;28;20253;-63
2023/05/04 00:35:55;;;;;;;1.50;1.40;;;17.50;54.60;;;;;;5073082;28;20174;-62
2023/05/04 00:38:20;;;;;;;1.55;1.45;;;17.50;54.60;;;;;;5072927;28;20174;-62
2023/05/04 00:40:46;;;;;;;2.25;1.63;;;17.40;54.60;;;;;;5072469;28;20181;-62
2023/05/04 00:43:11;;;;;;;1.50;1.40;;;17.40;54.60;;;;;;5072704;28;20269;-61
2023/05/04 00:45:37;;;;;;;1.73;1.63;;;17.40;54.60;;;;;;5073026;28;20730;-62
2023/05/04 00:48:03;;;;;;;1.70;1.60;;;17.40;54.60;;;;;;5071070;28;20617;-61
2023/05/04 00:50:28;;;;;;;1.63;1.52;;;17.40;54.60;;;;;;5072556;28;20656;-61
2023/05/04 00:52:55;;;;;;;1.67;1.58;;;17.40;54.60;;;;;;5073041;28;20167;-61
2023/05/04 00:55:21;;;;;;;1.85;1.75;;;17.40;54.60;;;;;;5072099;28;20244;-62
2023/05/04 00:57:48;;;;;;;1.65;1.55;;;17.40;54.60;;;;;;5072745;28;20583;-62
2023/05/04 01:00:13;;;;;;;1.70;1.60;;;17.40;54.60;;;;;;5070924;28;20579;-62
2023/05/04 01:02:40;;;;;;;1.85;1.75;;;17.40;54.60;;;;;;5072488;28;20253;-63
2023/05/04 01:05:06;;;;;;;1.70;1.60;;;17.40;54.60;;;;;;5072638;28;20217;-62
2023/05/04 01:07:38;;;;;;;1.73;1.63;;;17.40;54.60;;;;;;5071075;28;20163;-61
2023/05/04 01:10:08;;;;;;;1.70;1.60;;;17.40;54.60;;;;;;5071552;28;20182;-61
2023/05/04 01:12:39;;;;;;;1.85;1.70;;;17.40;54.60;;;;;;5071394;28;20186;-61
2023/05/04 01:15:06;;;;;;;1.92;1.73;;;17.40;54.60;;;;;;5070552;28;20666;-61
2023/05/04 01:17:31;;;;;;;1.80;1.65;;;17.40;54.70;;;;;;5072468;28;20202;-61
2023/05/04 01:19:57;;;;;;;1.63;1.50;;;17.30;54.60;;;;;;5072892;28;20193;-61
2023/05/04 01:22:22;;;;;;;1.85;1.60;;;17.40;54.70;;;;;;5071821;28;20177;-61
2023/05/04 01:24:48;;;;;;;1.88;1.77;;;17.40;54.70;;;;;;5072033;28;20217;-61
2023/05/04 01:27:24;;;;;;;1.85;1.75;;;17.30;54.60;;;;;;5075179;28;20222;-61
2023/05/04 01:30:04;;;;;;;1.85;1.75;;;17.30;54.70;;;;;;5074582;28;20198;-62
2023/05/04 01:32:30;;;;;;;1.60;1.50;;;17.30;54.60;;;;;;5076774;28;20170;-62
2023/05/04 01:34:56;;;;;;;1.67;1.58;;;17.30;54.70;;;;;;5076318;28;20631;-62
2023/05/04 01:37:21;;;;;;;1.60;1.50;;;17.30;54.60;;;;;;5074193;28;20198;-62
2023/05/04 01:39:47;;;;;;;1.38;1.30;;;17.30;54.70;;;;;;5076411;28;20273;-62
2023/05/04 01:42:12;;;;;;;1.70;1.60;;;17.30;54.60;;;;;;5076019;28;20266;-61
2023/05/04 01:44:38;;;;;;;2.00;1.70;;;17.30;54.60;;;;;;5075518;28;20293;-62
2023/05/04 01:47:03;;;;;;;1.92;1.67;;;17.30;54.60;;;;;;5076245;28;20171;-61
2023/05/04 01:49:29;;;;;;;1.75;1.65;;;17.30;54.60;;;;;;5075185;28;20186;-61
2023/05/04 01:51:54;;;;;;;1.48;1.35;;;17.30;54.60;;;;;;5076243;28;20167;-61
2023/05/04 01:54:20;;;;;;;1.63;1.52;;;17.30;54.60;;;;;;5075743;28;20641;-61
2023/05/04 01:56:45;;;;;;;2.03;1.73;;;17.30;54.60;;;;;;5075419;28;20637;-62
2023/05/04 01:59:11;;;;;;;1.90;1.80;;;17.30;54.70;;;;;;5075658;28;20641;-63
2023/05/04 02:01:36;;;;;;;1.88;1.73;;;17.30;54.70;;;;;;5075886;28;20640;-62
2023/05/04 02:04:02;;;;;;;1.95;1.80;;;17.30;54.70;;;;;;5075197;28;20182;-62
2023/05/04 02:06:27;;;;;;;1.65;1.55;;;17.30;54.60;;;;;;5075694;28;20178;-62
2023/05/04 02:08:53;;;;;;;1.83;1.60;;;17.30;54.60;;;;;;5075869;28;20611;-61
2023/05/04 02:11:18;;;;;;;2.28;1.58;;;17.30;54.70;;;;;;5074834;28;20269;-61
2023/05/04 02:13:44;;;;;;;1.80;1.70;;;17.20;54.60;;;;;;5075600;28;20257;-61
2023/05/04 02:16:10;;;;;;;1.88;1.77;;;17.20;54.60;;;;;;5075565;28;20178;-61
2023/05/04 02:18:36;;;;;;;1.70;1.60;;;17.20;54.60;;;;;;5075006;28;20588;-61
2023/05/04 02:21:01;;;;;;;1.35;1.20;;;17.20;54.60;;;;;;5075873;28;20505;-61
2023/05/04 02:23:27;;;;;;;2.55;1.40;;;17.20;54.70;;;;;;5075401;28;20182;-61
2023/05/04 02:25:53;;;;;;;1.60;1.50;;;17.20;54.60;;;;;;5074565;28;20234;-61
2023/05/04 02:28:18;;;;;;;1.65;1.55;;;17.20;54.60;;;;;;5075090;28;20202;-61
2023/05/04 02:30:44;;;;;;;1.52;1.42;;;17.20;54.60;;;;;;5075467;28;20185;-62
2023/05/04 02:33:10;;;;;;;1.77;1.67;;;17.20;54.70;;;;;;5074380;28;20170;-62
2023/05/04 02:35:35;;;;;;;1.85;1.75;;;17.20;54.60;;;;;;5075114;28;20186;-62
2023/05/04 02:38:01;;;;;;;2.00;1.42;;;17.20;54.60;;;;;;5075206;28;20174;-62
2023/05/04 02:40:26;;;;;;;1.92;1.70;;;17.20;54.70;;;;;;5074294;28;20185;-62
2023/05/04 02:42:52;;;;;;;1.75;1.65;;;17.20;54.70;;;;;;5075237;28;20171;-62
2023/05/04 02:45:17;;;;;;;1.20;1.20;;;17.20;54.70;;;;;;5074978;28;20238;-62
2023/05/04 02:47:43;;;;;;;1.77;1.67;;;17.20;54.70;;;;;;5074597;28;20660;-61
2023/05/04 02:50:08;;;;;;;1.70;1.60;;;17.20;54.70;;;;;;5074895;28;20202;-61
2023/05/04 02:52:34;;;;;;;2.03;1.80;;;17.20;54.70;;;;;;5075089;28;20261;-61
2023/05/04 02:55:00;;;;;;;1.70;1.60;;;17.20;54.70;;;;;;5074328;28;20297;-62
2023/05/04 02:57:26;;;;;;;1.60;1.50;;;17.10;54.60;;;;;;5074487;28;20229;-62
2023/05/04 02:59:51;;;;;;;1.67;1.55;;;17.20;54.70;;;;;;5074479;28;20174;-62
2023/05/04 03:02:17;;;;;;;1.90;1.80;;;17.10;54.60;;;;;;5074803;28;20170;-62
2023/05/04 03:04:42;;;;;;;1.60;1.50;;;17.10;54.60;;;;;;5074860;28;20206;-61
2023/05/04 03:07:08;;;;;;;1.60;1.50;;;17.10;54.60;;;;;;5073956;28;20835;-61
2023/05/04 03:09:33;;;;;;;1.88;1.70;;;17.10;54.70;;;;;;5074686;28;20546;-61
2023/05/04 03:12:00;;;;;;;1.58;1.48;;;17.10;54.70;;;;;;5074828;28;20167;-61
2023/05/04 03:14:26;;;;;;;1.48;1.38;;;17.10;54.60;;;;;;5073824;28;20167;-61
2023/05/04 03:16:51;;;;;;;2.28;1.85;;;17.10;54.70;;;;;;5074561;28;20529;-61
2023/05/04 03:19:17;;;;;;;1.70;1.60;;;17.10;54.60;;;;;;5074404;28;20173;-61
2023/05/04 03:21:44;;;;;;;1.60;1.50;;;17.10;54.70;;;;;;5073873;28;20184;-61
2023/05/04 03:24:10;;;;;;;2.30;2.10;;;17.10;54.60;;;;;;5073734;28;20646;-60
2023/05/04 03:26:35;;;;;;;1.45;1.35;;;17.10;54.70;;;;;;5074229;28;20222;-61
2023/05/04 03:29:01;;;;;;;1.80;1.65;;;17.10;54.70;;;;;;5073844;28;20209;-61
2023/05/04 03:31:26;;;;;;;1.70;1.60;;;17.10;54.70;;;;;;5074272;28;20174;-62
2023/05/04 03:33:52;;;;;;;1.98;1.60;;;17.10;54.70;;;;;;5074289;28;20261;-63
2023/05/04 03:36:18;;;;;;;1.77;1.67;;;17.10;54.70;;;;;;5073181;28;20178;-62
2023/05/04 03:38:43;;;;;;;1.83;1.70;;;17.00;54.60;;;;;;5074185;28;20170;-62
2023/05/04 03:41:09;;;;;;;1.77;1.67;;;17.10;54.70;;;;;;5073886;28;20170;-62
2023/05/04 03:43:35;;;;;;;1.73;1.63;;;17.00;54.70;;;;;;5073260;28;20182;-62
2023/05/04 03:46:00;;;;;;;2.08;1.65;;;17.00;54.60;;;;;;5074013;28;20242;-61
2023/05/04 03:48:26;;;;;;;1.70;1.40;;;17.10;54.70;;;;;;5073064;28;20644;-62
2023/05/04 03:50:51;;;;;;;2.45;1.88;;;17.00;54.60;;;;;;5073019;28;20177;-61
2023/05/04 03:53:17;;;;;;;1.80;1.70;;;17.00;54.60;;;;;;5072362;28;20185;-61
2023/05/04 03:55:42;;;;;;;1.73;1.63;;;17.00;54.60;;;;;;5073709;28;20171;-61
2023/05/04 03:58:08;;;;;;;1.95;1.67;;;17.00;54.60;;;;;;5073054;28;20189;-61
2023/05/04 04:00:34;;;;;;;1.50;1.40;;;17.00;54.60;;;;;;5073682;28;20533;-62
2023/05/04 04:02:59;;;;;;;1.88;1.70;;;17.00;54.60;;;;;;5073641;28;20223;-61
2023/05/04 04:05:25;;;;;;;1.42;1.33;;;17.00;54.60;;;;;;5072699;28;20294;-62
2023/05/04 04:07:50;;;;;;;1.80;1.70;;;17.00;54.60;;;;;;5073813;28;20643;-61
2023/05/04 04:10:16;;;;;;;1.60;1.50;;;17.00;54.60;;;;;;5072637;28;20181;-61
2023/05/04 04:12:41;;;;;;;1.63;1.52;;;17.00;54.60;;;;;;5073724;28;20170;-61
2023/05/04 04:15:07;;;;;;;2.05;1.80;;;17.00;54.60;;;;;;5073355;28;20542;-61
2023/05/04 04:17:33;;;;;;;1.45;1.35;;;17.00;54.60;;;;;;5072865;28;20175;-61
2023/05/04 04:19:58;;;;;;;1.73;1.48;;;17.00;54.60;;;;;;5073551;28;20181;-62
2023/05/04 04:22:25;;;;;;;1.73;1.63;;;17.00;54.60;;;;;;5073104;28;20181;-61
2023/05/04 04:24:50;;;;;;;1.50;1.40;;;17.00;54.70;;;;;;5072256;28;20206;-61
2023/05/04 04:27:16;;;;;;;1.70;1.60;;;17.00;54.60;;;;;;5072733;28;20656;-61
2023/05/04 04:29:42;;;;;;;1.80;1.70;;;17.00;54.60;;;;;;5073368;28;20595;-62
2023/05/04 04:32:07;;;;;;;2.50;1.85;;;17.00;54.60;;;;;;5072329;28;20167;-62
2023/05/04 04:34:33;;;;;;;1.77;1.67;;;17.00;54.60;;;;;;5073195;28;20220;-63
2023/05/04 04:36:59;;;;;;;1.60;1.50;;;17.00;54.60;;;;;;5073184;28;20176;-62
2023/05/04 04:39:25;;;;;;;1.40;1.30;;;17.00;54.60;;;;;;5072179;28;20182;-63
2023/05/04 04:41:51;;;;;;;1.77;1.42;;;17.00;54.60;;;;;;5073228;28;20177;-62
2023/05/04 04:44:16;;;;;;;2.30;1.75;;;17.00;54.60;;;;;;5072833;28;20181;-62
2023/05/04 04:46:43;;;;;;;1.95;1.38;;;17.00;54.60;;;;;;5072408;28;20166;-62
2023/05/04 04:49:09;;;;;;;2.17;1.65;;;17.00;54.50;;;;;;5072785;28;20178;-62
2023/05/04 04:51:34;;;;;;;1.83;1.50;;;17.00;54.50;;;;;;5072971;28;20682;-62
2023/05/04 04:54:00;;;;;;;1.88;1.70;;;17.00;55.20;;;;;;5071925;28;20686;-61
2023/05/04 04:56:25;;;;;;;1.63;1.52;;;17.00;54.50;;;;;;5072576;28;20220;-61
2023/05/04 04:58:52;;;;;;;1.90;1.80;;;17.00;54.50;;;;;;5072932;28;20174;-62
2023/05/04 05:01:17;;;;;;;1.77;1.60;;;17.00;54.50;;;;;;5072064;28;20544;-62
2023/05/04 05:03:46;;;;;;;2.08;1.88;;;17.00;54.50;;;;;;5072888;28;20673;-62
2023/05/04 05:06:12;;;;;;;1.77;1.67;;;17.00;54.50;;;;;;5072431;28;20206;-62
2023/05/04 05:08:38;;;;;;;2.45;1.80;;;17.00;54.50;;;;;;5072109;28;20173;-61
2023/05/04 05:11:04;;;;;;;1.63;1.52;;;17.00;54.50;;;;;;5072936;28;20244;-61
2023/05/04 05:13:30;;;;;;;2.05;1.80;;;17.00;54.50;;;;;;5071958;28;20186;-61
2023/05/04 05:15:56;;;;;;;1.45;1.40;;;17.00;54.40;;;;;;5072780;28;20254;-61
2023/05/04 05:18:21;;;;;;;1.38;1.27;;;17.00;54.40;;;;;;5072297;28;20705;-61
2023/05/04 05:20:47;;;;;;;1.95;1.65;;;17.10;54.50;;;;;;5072052;28;20293;-62
2023/05/04 05:23:12;;;;;;;1.70;1.60;;;17.00;54.40;;;;;;5072252;28;20170;-61
2023/05/04 05:25:38;;;;;;;1.70;1.60;;;17.00;54.50;;;;;;5072479;28;20217;-62
2023/05/04 05:28:04;;;;;;;1.92;1.58;;;17.00;54.50;;;;;;5072075;28;20645;-61
2023/05/04 05:30:29;;;;;;;1.73;1.60;;;17.00;54.50;;;;;;5072627;28;20262;-62
2023/05/04 05:32:55;;;;;;;1.92;1.52;;;17.00;54.50;;;;;;5072565;28;20170;-63
2023/05/04 05:35:20;;;;;;;1.67;1.58;;;17.00;54.40;;;;;;5071489;28;20175;-62
2023/05/04 05:37:47;;;;;;;2.95;1.70;;;17.00;54.40;;;;;;5072379;28;20622;-63
2023/05/04 05:40:14;;;;;;;1.77;1.40;;;17.00;54.40;;;;;;5072167;28;20656;-62
2023/05/04 05:42:41;;;;;;;1.70;1.42;;;17.00;54.40;;;;;;5071636;28;20613;-62
2023/05/04 05:45:09;;;;;;;1.55;1.45;;;17.00;54.30;;;;;;5071965;28;20699;-62
2023/05/04 05:47:35;;;;;;;1.60;1.50;;;17.00;54.30;;;;;;5072503;28;20166;-62
2023/05/04 05:50:01;;;;;;;1.85;1.70;;;17.10;54.40;;;;;;5071597;28;20255;-61
2023/05/04 05:52:27;;;;;;;1.92;1.80;;;17.00;54.30;;;;;;5071790;28;20224;-62
2023/05/04 05:54:52;;;;;;;1.60;1.50;;;17.10;54.40;;;;;;5072574;28;20171;-62
2023/05/04 05:57:19;;;;;;;1.67;1.58;;;17.10;54.30;;;;;;5071556;28;20181;-62
2023/05/04 05:59:45;;;;;;;1.60;1.50;;;17.10;54.40;;;;;;5072273;28;20174;-62
2023/05/04 06:02:13;;;;;;;1.42;1.33;;;17.10;54.40;;;;;;5071911;28;20552;-63
2023/05/04 06:04:41;;;;;;;1.60;1.50;;;17.10;54.30;;;;;;5071558;28;20214;-63
2023/05/04 06:07:07;;;;;;;1.50;1.40;;;17.10;54.30;;;;;;5072069;28;20174;-62
2023/05/04 06:09:33;;;;;;;1.90;1.80;;;17.10;54.30;;;;;;5072128;28;20175;-62
2023/05/04 06:11:58;;;;;;;1.33;1.30;;;17.10;54.30;;;;;;5073822;28;20586;-61
2023/05/04 06:14:24;;;;;;;1.83;1.70;;;17.10;54.20;;;;;;5075442;28;20953;-62
2023/05/04 06:16:49;;;;;;;1.70;1.52;;;17.10;54.30;;;;;;5075022;28;20659;-61
2023/05/04 06:19:15;;;;;;;1.70;1.60;;;17.10;54.30;;;;;;5075413;28;20171;-62
2023/05/04 06:21:40;;;;;;;1.63;1.52;;;17.10;54.30;;;;;;5075465;28;20166;-62
2023/05/04 06:24:06;;;;;;;1.67;1.58;;;17.10;54.30;;;;;;5074696;28;20163;-61
2023/05/04 06:26:31;;;;;;;1.23;1.13;;;17.10;54.20;;;;;;5075479;28;20238;-61
2023/05/04 06:28:57;;;;;;;1.83;1.50;;;17.10;54.20;;;;;;5075580;28;20224;-61
2023/05/04 06:31:23;;;;;;;1.50;1.40;;;17.20;54.30;;;;;;5074588;28;20236;-62
2023/05/04 06:33:49;;;;;;;1.67;1.45;;;17.10;54.20;;;;;;5075509;28;20250;-63
2023/05/04 06:36:15;;;;;;;1.48;1.38;;;17.20;54.20;;;;;;5074998;28;20566;-62
2023/05/04 06:38:40;;;;;;;1.83;1.40;;;17.20;54.20;;;;;;5074843;28;20296;-62
2023/05/04 06:41:06;;;;;;;1.60;1.50;;;17.20;54.30;;;;;;5075214;28;20201;-62
2023/05/04 06:43:31;;;;;;;1.40;1.30;;;17.20;54.20;;;;;;5075486;28;20224;-62
2023/05/04 06:46:03;;;;;;;1.45;1.35;;;17.20;54.10;;;;;;5074460;28;20218;-62
2023/05/04 06:48:29;;;;;;;1.40;1.30;;;17.20;54.10;;;;;;5074869;28;20652;-62
2023/05/04 06:50:55;;;;;;;1.60;1.50;;;17.20;54.10;;;;;;5075035;28;20194;-61
2023/05/04 06:53:21;;;;;;;1.67;1.58;;;17.30;54.20;;;;;;5074340;28;20308;-61
2023/05/04 06:55:46;;;;;;;1.50;1.40;;;17.30;54.20;;;;;;5075175;28;20249;-62
2023/05/04 06:58:12;;;;;;;1.35;1.20;;;17.30;54.10;;;;;;5074811;28;20613;-62
2023/05/04 07:00:38;;;;;;;1.27;1.20;;;17.30;54.10;;;;;;5074180;28;20656;-62
2023/05/04 07:03:03;;;;;;;1.77;1.63;;;17.30;54.10;;;;;;5074829;28;20185;-62
2023/05/04 07:05:29;;;;;;;1.60;1.50;;;17.30;54.20;;;;;;5074385;28;20213;-62
2023/05/04 07:07:54;;;;;;;1.67;1.25;;;17.30;54.10;;;;;;5074250;28;20502;-61
2023/05/04 07:10:20;;;;;;;1.48;1.38;;;17.30;54.10;;;;;;5074428;28;20629;-61
2023/05/04 07:12:46;;;;;;;2.60;1.80;;;17.30;54.20;;;;;;5074784;28;20167;-61
2023/05/04 07:15:12;;;;;;;2.15;1.50;;;17.30;54.10;;;;;;5073797;28;20631;-61
2023/05/04 07:17:37;;;;;;;1.60;1.50;;;17.30;54.10;;;;;;5074756;28;20174;-60
2023/05/04 07:20:04;;;;;;;1.42;1.33;;;17.30;54.10;;;;;;5073804;28;20178;-62
2023/05/04 07:22:30;;;;;;;1.67;1.58;;;17.30;54.10;;;;;;5073527;28;20544;-61
2023/05/04 07:24:59;;;;;;;1.58;1.48;;;17.30;54.10;;;;;;5074263;28;20242;-61
2023/05/04 07:27:25;;;;;;;1.92;1.33;;;17.30;54.10;;;;;;5073031;28;20276;-61
2023/05/04 07:29:50;;;;;;;1.67;1.42;;;17.30;54.10;;;;;;5074094;28;20175;-62
2023/05/04 07:32:16;;;;;;;1.95;1.60;;;17.40;54.20;;;;;;5073733;28;20174;-62
2023/05/04 07:34:45;;;;;;;2.90;1.50;;;17.40;54.00;;;;;;5073535;28;20278;-60
2023/05/04 07:37:11;;;;;;;2.25;1.60;;;17.30;54.00;;;;;;5073713;28;20608;-61
2023/05/04 07:39:37;;;;;;;3.22;1.80;;;17.40;54.00;;;;;;5074140;28;20206;-61
2023/05/04 07:42:03;;;;;;;1.48;1.35;;;17.40;54.10;;;;;;5073469;28;20181;-61
2023/05/04 07:44:30;;;;;;;4.57;1.67;;;17.50;54.40;;;;;;5073697;28;20210;-62
2023/05/04 07:46:58;;;;;;;4.60;2.00;;;17.50;54.20;;;;;;5073866;28;20174;-60
2023/05/04 07:49:24;;;;;;;2.60;1.98;;;17.60;54.10;;;;;;5073286;28;20220;-59
2023/05/04 07:51:50;;;;;;;2.00;1.80;;;17.60;53.90;;;;;;5074071;28;20174;-60
2023/05/04 07:54:16;;;;;;;2.13;1.90;;;17.60;54.00;;;;;;5073655;28;20641;-60
2023/05/04 07:56:41;;;;;;;2.53;1.70;;;17.60;53.90;;;;;;5073140;28;20227;-61
2023/05/04 07:59:07;;;;;;;3.95;2.40;;;17.60;53.90;;;;;;5073322;28;20265;-62
2023/05/04 08:01:32;;;;;;;4.10;2.05;;;17.60;53.90;;;;;;5073568;28;20194;-62
2023/05/04 08:03:58;;;;;;;2.88;2.00;;;17.70;53.80;;;;;;5073129;28;20167;-62
2023/05/04 08:06:23;;;;;;;1.90;1.73;;;17.70;53.90;;;;;;5073210;28;20325;-61
2023/05/04 08:08:49;;;;;;;3.67;1.80;;;17.60;53.90;;;;;;5073500;28;20227;-61
2023/05/04 08:11:15;;;;;;;2.08;1.95;;;17.70;54.00;;;;;;5072554;28;20178;-61
2023/05/04 08:13:40;;;;;;;3.47;1.92;;;17.60;53.90;;;;;;5073467;28;20245;-61
2023/05/04 08:16:08;;;;;;;3.40;2.00;;;17.70;53.90;;;;;;5072835;28;20202;-61
2023/05/04 08:18:33;;;;;;;2.13;1.90;;;17.70;54.60;;;;;;5072560;28;20170;-61
2023/05/04 08:20:59;;;;;;;5.10;1.90;;;17.70;53.90;;;;;;5073382;28;20273;-61
2023/05/04 08:23:24;;;;;;;2.20;2.00;;;17.70;53.80;;;;;;5072505;28;20253;-61
2023/05/04 08:25:51;;;;;;;2.38;1.73;;;17.70;53.80;;;;;;5073183;28;20265;-60
2023/05/04 08:28:17;;;;;;;3.55;1.85;;;17.80;53.80;;;;;;5072860;28;20174;-61
2023/05/04 08:30:42;;;;;;;2.35;2.05;;;17.80;53.70;;;;;;5072400;28;20184;-62
2023/05/04 08:33:08;;;;;;;6.43;2.90;;;17.80;53.70;;;;;;5072749;28;20637;-62
2023/05/04 08:35:33;;;;;;;3.17;2.42;;;17.80;53.40;;;;;;5072757;28;20178;-62
2023/05/04 08:38:00;;;;;;;3.40;2.42;;;17.80;53.40;;;;;;5072494;28;20629;-62
2023/05/04 08:40:26;;;;;;;3.40;2.42;;;17.80;53.50;;;;;;5072915;28;20181;-62
2023/05/04 08:42:51;;;;;;;3.40;1.85;;;17.80;53.50;;;;;;5071896;28;20548;-61
2023/05/04 08:45:17;;;;;;;4.28;1.95;;;17.80;53.50;;;;;;5071850;28;20242;-61
2023/05/04 08:47:43;;;;;;;3.08;2.80;;;17.80;53.50;;;;;;5073213;28;20257;-61
2023/05/04 08:50:09;;;;;;;2.50;2.22;;;17.80;53.50;;;;;;5071649;28;20193;-61
2023/05/04 08:52:35;;;;;;;2.10;1.90;;;17.80;53.50;;;;;;5072318;28;20170;-61
2023/05/04 08:55:01;;;;;;;3.45;2.22;;;17.90;53.50;;;;;;5071806;28;20193;-61
2023/05/04 08:57:26;;;;;;;3.50;1.88;;;17.90;53.50;;;;;;5071450;28;20171;-61
2023/05/04 08:59:53;;;;;;;2.63;2.30;;;17.90;53.40;;;;;;5070855;28;20651;-62
2023/05/04 09:02:20;;;;;;;2.60;1.95;;;17.90;53.50;;;;;;5072659;28;20228;-62
2023/05/04 09:04:45;;;;;;;2.40;2.08;;;17.90;53.50;;;;;;5072838;28;20564;-61
2023/05/04 09:07:11;;;;;;;3.15;2.20;;;17.90;53.50;;;;;;5071781;28;20648;-61
2023/05/04 09:09:37;;;;;;;2.55;1.88;;;17.90;53.60;;;;;;5071771;28;20712;-61
2023/05/04 09:12:03;;;;;;;2.40;1.85;;;17.90;53.60;;;;;;5072799;28;20578;-61
2023/05/04 09:14:32;;;;;;;2.03;1.77;;;17.90;53.60;;;;;;5071430;28;20177;-61
2023/05/04 09:16:58;;;;;;;2.92;1.80;;;18.00;53.60;;;;;;5072840;28;20253;-60
2023/05/04 09:19:25;;;;;;;2.42;1.80;;;18.00;53.60;;;;;;5071792;28;20700;-60
2023/05/04 09:21:53;;;;;;;2.63;1.98;;;18.00;53.60;;;;;;5072168;28;20189;-60
2023/05/04 09:24:28;;;;;;;2.35;1.80;;;18.00;53.50;;;;;;5072354;28;20178;-59
2023/05/04 09:26:54;;;;;;;2.45;1.83;;;18.10;53.60;;;;;;5071596;28;20321;-60
2023/05/04 09:29:21;;;;;;;2.03;1.73;;;18.10;53.60;;;;;;5072398;28;20266;-62
2023/05/04 09:31:46;;;;;;;2.53;1.80;;;18.10;53.70;;;;;;5072000;28;20179;-62
2023/05/04 09:34:12;;;;;;;3.33;1.83;;;18.10;53.80;;;;;;5080063;28;20170;-63
2023/05/04 09:36:38;;;;;;;2.67;1.80;;;18.10;53.80;;;;;;5082655;28;20170;-62
2023/05/04 09:39:13;;;;;;;3.25;1.67;;;18.20;53.80;;;;;;5078373;28;20175;-62
2023/05/04 09:41:39;;;;;;;2.10;1.80;;;18.20;53.90;;;;;;5088090;28;20543;-61
2023/05/04 09:44:05;;;;;;;2.63;1.63;;;18.10;53.80;;;;;;5092265;28;20215;-61
2023/05/04 09:46:31;;;;;;;1.95;1.58;;;18.20;53.90;;;;;;5094357;28;20610;-62
2023/05/04 09:48:56;;;;;;;3.38;2.15;;;18.20;54.00;;;;;;5088314;28;20257;-61
2023/05/04 09:51:26;;;;;;;2.13;1.70;;;18.20;54.00;;;;;;5076012;28;20170;-60
2023/05/04 09:53:52;;;;;;;2.63;1.90;;;18.20;54.00;;;;;;5076265;28;20181;-62
2023/05/04 09:56:37;;;;;;;1.90;1.67;;;18.20;54.10;;;;;;5074876;28;20187;-62
2023/05/04 09:59:03;;;;;;;2.97;1.48;;;18.20;54.00;;;;;;5076176;28;20167;-62
2023/05/04 10:01:29;;;;;;;2.80;1.92;;;18.20;54.00;;;;;;5074359;28;20186;-61
2023/05/04 10:03:55;;;;;;;1.60;1.50;;;18.30;54.10;;;;;;5074971;28;20170;-62
2023/05/04 10:06:21;;;;;;;1.85;1.50;;;18.30;54.10;;;;;;5084300;28;20286;-62
2023/05/04 10:08:49;;;;;;;2.08;1.80;;;18.30;54.10;;;;;;5096137;28;20174;-61
2023/05/04 10:11:17;;;;;;;1.90;1.50;;;18.30;54.10;;;;;;5095704;28;20178;-61
2023/05/04 10:13:47;;;;;;;1.80;1.70;;;18.30;54.10;;;;;;5095721;28;20177;-61
2023/05/04 10:16:24;;;;;;;1.60;1.50;;;18.40;54.10;;;;;;5094844;28;20806;-61
2023/05/04 10:19:09;;;;;;;2.00;1.75;;;18.40;54.10;;;;;;5095718;28;20624;-61
2023/05/04 10:21:37;;;;;;;1.60;1.50;;;18.40;54.10;;;;;;5095882;28;20166;-61
2023/05/04 10:24:35;;;;;;;3.45;1.58;;;18.40;54.10;;;;;;5095001;28;20650;-60
2023/05/04 10:27:09;;;;;;;1.88;1.55;;;18.40;54.10;;;;;;5094535;28;20270;-61
2023/05/04 10:29:35;;;;;;;2.40;1.52;;;18.40;54.20;;;;;;5094594;28;20548;-62
2023/05/04 10:32:00;;;;;;;1.70;1.60;;;18.40;54.20;;;;;;5093581;28;20947;-62
2023/05/04 10:34:32;;;;;;;1.77;1.63;;;18.50;54.20;;;;;;5095186;28;20162;-62
2023/05/04 10:36:59;;;;;;;1.92;1.60;;;18.50;54.20;;;;;;5095005;28;20213;-62
2023/05/04 10:39:27;;;;;;;2.25;1.42;;;18.60;54.80;;;;;;5093857;28;20182;-64
2023/05/04 10:42:01;;;;;;;3.75;1.50;;;18.60;54.10;;;;;;5075011;28;20179;-62
2023/05/04 10:44:28;;;;;;;5.00;1.70;;;18.60;54.20;;;;;;5073996;28;20534;-60
2023/05/04 10:47:00;;;;;;;2.30;1.80;;;18.60;54.20;;;;;;5075206;28;20183;-60
2023/05/04 10:49:26;;;;;;;3.78;1.65;;;18.70;54.10;;;;;;5074972;28;20204;-59
2023/05/04 10:52:08;;;;;;;3.38;2.10;;;18.70;54.20;;;;;;5074201;28;20689;-59
2023/05/04 10:54:35;;;;;;;1.75;1.65;;;18.70;54.20;;;;;;5074820;28;20633;-59
2023/05/04 10:57:08;;;;;;;1.60;1.50;;;18.70;54.20;;;;;;5074655;28;20706;-59
2023/05/04 10:59:33;;;;;;;1.65;1.40;;;18.70;54.20;;;;;;5074423;28;20212;-60
2023/05/04 11:02:00;;;;;;;2.35;1.67;;;18.80;54.20;;;;;;5074555;28;20194;-60
2023/05/04 11:04:25;;;;;;;2.83;1.60;;;18.80;54.20;;;;;;5074269;28;20197;-61
2023/05/04 11:06:56;;;;;;;1.80;1.70;;;18.80;54.20;;;;;;5073824;28;20637;-61
2023/05/04 11:09:21;;;;;;;3.85;2.20;;;18.80;54.20;;;;;;5074461;28;20190;-61
2023/05/04 11:11:47;;;;;;;4.85;1.75;;;18.80;54.20;;;;;;5057000;28;20179;-61
2023/05/04 11:14:23;;;;;;;3.45;1.60;;;18.80;54.20;;;;;;5073601;28;20170;-61
2023/05/04 11:16:49;;;;;;;2.17;1.90;;;18.80;54.20;;;;;;5074356;28;20664;-61
2023/05/04 11:19:14;;;;;;;3.13;2.13;;;18.80;54.70;;;;;;5073467;28;20257;-61
2023/05/04 11:21:40;;;;;;;5.90;2.30;;;18.80;54.00;;;;;;5074592;28;20169;-61
2023/05/04 11:24:05;;;;;;;2.50;1.88;;;18.80;54.00;;;;;;5074241;28;20253;-61
2023/05/04 11:26:31;;;;;;;4.65;2.00;;;18.80;54.00;;;;;;5073712;28;20234;-61
2023/05/04 11:28:57;;;;;;;5.60;2.17;;;18.80;53.90;;;;;;5074265;28;20690;-60
2023/05/04 11:31:22;;;;;;;4.03;2.05;;;18.80;53.80;;;;;;5074162;28;20182;-63
2023/05/04 11:33:53;;;;;;;4.80;2.17;;;18.80;53.80;;;;;;5073565;28;20288;-62
2023/05/04 11:36:19;;;;;;;5.28;2.13;;;18.90;53.90;;;;;;5073622;28;20523;-59
2023/05/04 11:38:44;;;;;;;2.88;2.00;;;18.90;53.80;;;;;;5072808;28;20633;-59
2023/05/04 11:41:11;;;;;;;7.97;2.35;;;19.00;53.70;;;;;;5087772;28;20181;-59
2023/05/04 11:43:36;;;;;;;4.32;2.05;;;19.00;53.80;;;;;;5094260;28;20173;-59
2023/05/04 11:46:03;;;;;;;6.32;2.22;;;19.00;53.70;;;;;;5092954;28;20205;-59
2023/05/04 11:48:30;;;;;;;3.25;1.70;;;19.00;53.70;;;;;;5089690;28;20257;-59
2023/05/04 11:50:57;;;;;;;4.47;1.58;;;19.10;53.70;;;;;;5072385;28;20325;-59
2023/05/04 11:53:22;;;;;;;4.55;2.10;;;19.10;53.70;;;;;;5068906;28;20586;-59
2023/05/04 11:55:48;;;;;;;3.40;1.73;;;19.10;53.70;;;;;;5072300;28;20178;-59
2023/05/04 11:58:13;;;;;;;6.97;1.98;;;19.10;53.70;;;;;;5072623;28;20542;-59
2023/05/04 12:00:45;;;;;;;4.40;1.85;;;19.10;53.60;;;;;;5072970;28;20171;-59
2023/05/04 12:03:12;;;;;;;5.50;2.50;;;19.20;53.60;;;;;;5071116;28;20185;-60
2023/05/04 12:05:37;;;;;;;4.03;2.40;;;19.20;53.60;;;;;;5073358;28;20210;-59
2023/05/04 12:08:03;;;;;;;4.55;1.70;;;19.20;53.60;;;;;;5073506;28;20189;-60
2023/05/04 12:10:30;;;;;;;2.58;1.85;;;19.20;53.60;;;;;;5072015;28;20277;-60
2023/05/04 12:12:55;;;;;;;3.83;2.05;;;19.20;53.70;;;;;;5073407;28;20604;-60
2023/05/04 12:15:31;;;;;;;4.18;2.10;;;19.20;53.60;;;;;;5072985;28;20170;-61
2023/05/04 12:17:57;;;;;;;2.20;1.70;;;19.20;53.60;;;;;;5072865;28;20190;-60
2023/05/04 12:20:24;;;;;;;2.83;1.85;;;19.30;53.70;;;;;;5072872;28;20185;-59
2023/05/04 12:22:49;;;;;;;3.28;2.00;;;19.30;53.70;;;;;;5072265;28;20292;-59
2023/05/04 12:25:18;;;;;;;2.90;1.65;;;19.30;53.70;;;;;;5072483;28;20293;-60
2023/05/04 12:27:43;;;;;;;3.50;1.95;;;19.30;53.70;;;;;;5072346;28;20219;-60
2023/05/04 12:30:09;;;;;;;3.03;1.90;;;19.30;53.70;;;;;;5071829;28;20197;-61
2023/05/04 12:32:35;;;;;;;4.20;1.88;;;19.30;53.70;;;;;;5072599;28;20170;-61
2023/05/04 12:35:00;;;;;;;4.07;1.80;;;19.30;53.60;;;;;;5073082;28;20178;-61
2023/05/04 12:37:26;;;;;;;2.30;1.70;;;19.30;54.20;;;;;;5072053;28;20189;-60
2023/05/04 12:39:51;;;;;;;2.60;1.55;;;19.30;53.50;;;;;;5076770;28;20535;-60
2023/05/04 12:42:17;;;;;;;3.15;1.98;;;19.40;53.40;;;;;;5092679;28;20226;-60
2023/05/04 12:44:42;;;;;;;2.10;1.77;;;19.50;53.30;;;;;;5091912;28;20266;-60